createdAt,value
2019-06-20T00:01:59.629Z,17.45
2019-06-20T00:04:28.265Z,17.37
2019-06-20T00:06:57.055Z,17.12
2019-06-20T00:09:25.791Z,17.04
2019-06-20T00:11:55.844Z,17.01
2019-06-20T00:14:24.387Z,16.93
2019-06-20T00:16:52.928Z,17.12
2019-06-20T00:19:21.452Z,17.22
2019-06-20T00:21:50.120Z,17.31
2019-06-20T00:24:18.663Z,17.16
2019-06-20T00:26:47.317Z,17.34
2019-06-20T00:29:15.893Z,17.42
2019-06-20T00:31:44.433Z,17.48
2019-06-20T00:34:12.965Z,17.27
2019-06-20T00:36:41.647Z,17.46
2019-06-20T00:39:10.390Z,17.48
2019-06-20T00:41:39.130Z,17.57
2019-06-20T00:44:07.780Z,17.54
2019-06-20T00:46:36.516Z,17.55
2019-06-20T00:49:05.334Z,17.51
2019-06-20T00:51:34.066Z,17.60
2019-06-20T00:54:02.863Z,17.56
2019-06-20T00:56:31.479Z,17.54
2019-06-20T00:59:00.255Z,17.63
2019-06-20T01:01:28.905Z,17.51
2019-06-20T01:03:57.434Z,17.55
2019-06-20T01:06:26.128Z,17.45
2019-06-20T01:08:54.756Z,17.56
2019-06-20T01:11:23.611Z,17.43
2019-06-20T01:13:52.995Z,17.52
2019-06-20T01:16:21.707Z,17.45
2019-06-20T01:18:50.355Z,17.44
2019-06-20T01:21:19.125Z,17.31
2019-06-20T01:23:47.782Z,17.26
2019-06-20T01:26:16.412Z,17.25
2019-06-20T01:28:44.975Z,17.34
2019-06-20T01:31:13.520Z,17.34
2019-06-20T01:33:42.155Z,17.25
2019-06-20T01:36:10.722Z,17.41
2019-06-20T01:38:39.442Z,17.41
2019-06-20T01:41:07.993Z,17.44
2019-06-20T01:43:49.448Z,17.51
2019-06-20T01:46:06.987Z,17.53
2019-06-20T01:48:35.527Z,17.52
2019-06-20T01:51:04.298Z,17.46
2019-06-20T01:53:32.849Z,17.62
2019-06-20T01:56:01.501Z,17.66
2019-06-20T01:58:30.062Z,17.75
2019-06-20T02:00:58.885Z,17.76
2019-06-20T02:03:27.555Z,17.84
2019-06-20T02:05:56.439Z,17.72
2019-06-20T02:08:25.066Z,17.58
2019-06-20T02:10:53.728Z,17.64
2019-06-20T02:13:22.386Z,17.72
2019-06-20T02:15:50.959Z,17.74
2019-06-20T02:18:19.681Z,17.70
2019-06-20T02:20:51.608Z,17.80
2019-06-20T02:23:20.768Z,17.87
2019-06-20T02:25:49.732Z,17.83
2019-06-20T02:28:18.472Z,17.88
2019-06-20T02:30:47.211Z,17.76
2019-06-20T02:33:15.778Z,17.72
2019-06-20T02:35:44.417Z,17.80
2019-06-20T02:38:13.085Z,17.76
2019-06-20T02:40:41.831Z,17.83
2019-06-20T02:43:10.572Z,17.84
2019-06-20T02:45:39.313Z,17.77
2019-06-20T02:48:08.003Z,17.79
2019-06-20T02:50:36.743Z,17.80
2019-06-20T02:53:05.500Z,17.80
2019-06-20T02:55:34.140Z,17.81
2019-06-20T02:58:02.989Z,17.77
2019-06-20T03:00:43.175Z,17.70
2019-06-20T03:03:11.857Z,17.70
2019-06-20T03:05:40.502Z,17.71
2019-06-20T03:08:09.048Z,17.73
2019-06-20T03:10:37.622Z,17.72
2019-06-20T03:13:09.362Z,17.66
2019-06-20T03:15:36.943Z,17.71
2019-06-20T03:18:05.499Z,17.76
2019-06-20T03:20:34.042Z,17.78
2019-06-20T03:23:02.902Z,17.70
2019-06-20T03:25:31.689Z,17.75
2019-06-20T03:28:00.456Z,17.72
2019-06-20T03:30:29.180Z,17.66
2019-06-20T03:32:57.988Z,17.70
2019-06-20T03:35:26.624Z,17.65
2019-06-20T03:37:55.370Z,17.65
2019-06-20T03:40:24.131Z,17.68
2019-06-20T03:42:52.779Z,17.79
2019-06-20T03:45:21.512Z,17.79
2019-06-20T03:47:50.118Z,17.78
2019-06-20T03:50:18.817Z,17.75
2019-06-20T03:52:49.761Z,17.59
2019-06-20T03:55:18.583Z,17.62
2019-06-20T03:57:47.231Z,17.60
2019-06-20T04:00:18.965Z,17.56
2019-06-20T04:02:47.654Z,17.56
2019-06-20T04:05:16.280Z,17.64
2019-06-20T04:07:44.822Z,17.59
2019-06-20T04:10:13.588Z,17.55
2019-06-20T04:12:42.131Z,17.66
2019-06-20T04:15:19.016Z,17.70
2019-06-20T04:17:41.251Z,17.66
2019-06-20T04:20:09.890Z,17.70
2019-06-20T04:22:38.467Z,17.66
2019-06-20T04:25:07.224Z,17.78
2019-06-20T04:27:35.775Z,17.87
2019-06-20T04:30:04.571Z,17.85
2019-06-20T04:32:33.244Z,17.75
2019-06-20T04:35:01.980Z,17.75
2019-06-20T04:37:30.523Z,17.76
2019-06-20T04:39:59.153Z,17.62
2019-06-20T04:42:27.718Z,17.57
2019-06-20T04:44:58.243Z,17.62
2019-06-20T04:47:27.008Z,17.67
2019-06-20T04:49:55.652Z,17.70
2019-06-20T04:52:24.311Z,17.92
2019-06-20T04:54:52.978Z,17.92
2019-06-20T04:57:21.526Z,17.96
2019-06-20T05:00:01.299Z,17.98
2019-06-20T05:02:33.028Z,18.06
2019-06-20T05:05:03.968Z,18.25
2019-06-20T05:07:32.856Z,18.23
2019-06-20T05:10:01.506Z,18.31
2019-06-20T05:12:30.090Z,18.32
2019-06-20T05:14:58.722Z,18.26
2019-06-20T05:17:27.470Z,18.29
2019-06-20T05:19:56.111Z,18.27
2019-06-20T05:22:24.667Z,18.29
2019-06-20T05:24:53.197Z,18.28
2019-06-20T05:27:21.876Z,18.29
2019-06-20T05:29:50.516Z,18.38
2019-06-20T05:32:19.037Z,18.29
2019-06-20T05:34:47.821Z,18.37
2019-06-20T05:37:16.525Z,18.57
2019-06-20T05:39:45.128Z,18.64
2019-06-20T05:42:13.766Z,18.90
2019-06-20T05:44:42.312Z,18.69
2019-06-20T05:47:12.802Z,18.79
2019-06-20T05:49:41.509Z,18.78
2019-06-20T05:52:10.196Z,18.83
2019-06-20T05:54:38.915Z,19.09
2019-06-20T05:57:07.659Z,19.19
2019-06-20T05:59:36.246Z,19.35
2019-06-20T06:02:04.892Z,19.32
2019-06-20T06:04:33.444Z,19.00
2019-06-20T06:07:02.143Z,19.23
2019-06-20T06:09:30.704Z,19.33
2019-06-20T06:11:59.351Z,19.52
2019-06-20T06:14:28.128Z,19.47
2019-06-20T06:16:56.763Z,19.95
2019-06-20T06:19:25.331Z,19.96
2019-06-20T06:21:54.025Z,19.61
2019-06-20T06:24:22.694Z,19.32
2019-06-20T06:26:51.324Z,18.98
2019-06-20T06:29:19.987Z,18.92
2019-06-20T06:31:48.734Z,18.94
2019-06-20T06:34:17.580Z,18.96
2019-06-20T06:36:46.293Z,19.13
2019-06-20T06:39:14.914Z,19.52
2019-06-20T06:41:43.585Z,19.28
2019-06-20T06:44:12.141Z,19.26
2019-06-20T06:46:47.178Z,19.32
2019-06-20T06:49:11.337Z,19.24
2019-06-20T06:51:40.057Z,19.04
2019-06-20T06:54:08.681Z,18.90
2019-06-20T06:56:37.237Z,18.77
2019-06-20T06:59:06.091Z,18.91
2019-06-20T07:01:34.848Z,19.21
2019-06-20T07:04:03.688Z,19.31
2019-06-20T07:06:32.369Z,19.44
2019-06-20T07:09:01.106Z,19.18
2019-06-20T07:11:29.857Z,18.92
2019-06-20T07:13:58.684Z,18.91
2019-06-20T07:16:27.383Z,19.23
2019-06-20T07:18:56.033Z,19.17
2019-06-20T07:21:24.743Z,19.08
2019-06-20T07:23:53.473Z,18.87
2019-06-20T07:26:22.136Z,18.94
2019-06-20T07:28:51.583Z,18.85
2019-06-20T07:31:20.390Z,18.74
2019-06-20T07:33:49.034Z,18.81
2019-06-20T07:36:17.704Z,18.88
2019-06-20T07:38:46.246Z,19.05
2019-06-20T07:41:15.339Z,19.52
2019-06-20T07:43:43.921Z,19.83
2019-06-20T07:46:12.475Z,19.73
2019-06-20T07:48:41.238Z,19.24
2019-06-20T07:51:09.931Z,19.58
2019-06-20T07:53:38.463Z,19.81
2019-06-20T07:56:09.389Z,19.87
2019-06-20T07:58:37.859Z,20.05
2019-06-20T14:09:05.580Z,22.89
2019-06-20T14:11:34.328Z,22.86
2019-06-20T14:14:03.127Z,22.90
2019-06-20T14:16:31.716Z,22.39
2019-06-20T14:19:01.684Z,23.03
2019-06-20T14:21:30.549Z,23.79
2019-06-20T14:23:59.075Z,24.92
2019-06-20T14:26:27.870Z,23.46
2019-06-20T14:28:56.509Z,23.52
2019-06-20T14:31:25.141Z,23.49
2019-06-20T14:33:55.345Z,22.77
2019-06-20T14:36:24.073Z,23.19
2019-06-20T14:38:53.856Z,21.97
2019-06-20T14:41:22.749Z,21.98
2019-06-20T14:43:51.797Z,22.41
2019-06-20T14:46:20.603Z,22.15
2019-06-20T14:48:50.180Z,22.00
2019-06-20T14:51:18.825Z,21.91
2019-06-20T14:53:47.463Z,21.67
2019-06-20T14:56:16.237Z,21.83
2019-06-20T14:58:44.961Z,21.58
2019-06-20T15:01:14.212Z,21.42
2019-06-20T15:03:42.797Z,21.57
2019-06-20T15:06:11.435Z,21.52
2019-06-20T15:08:39.996Z,21.51
2019-06-20T15:11:11.810Z,21.38
2019-06-20T15:13:39.191Z,20.99
2019-06-20T15:16:07.854Z,20.99
2019-06-20T15:18:36.381Z,21.16
2019-06-20T15:21:04.917Z,21.27
2019-06-20T15:23:33.461Z,21.17
2019-06-20T15:26:02.295Z,21.35
2019-06-20T15:28:30.876Z,21.54
2019-06-20T15:30:59.465Z,21.10
2019-06-20T15:33:28.213Z,21.54
2019-06-20T15:35:58.325Z,21.73
2019-06-20T15:38:27.002Z,21.48
2019-06-20T15:40:55.720Z,21.44
2019-06-20T15:43:24.258Z,21.29
2019-06-20T15:45:53.853Z,21.26
2019-06-20T15:48:22.545Z,20.88
2019-06-20T15:50:51.087Z,21.04
2019-06-20T15:53:19.769Z,21.22
2019-06-20T15:55:48.314Z,21.15
2019-06-20T15:58:16.965Z,20.88
2019-06-20T16:00:45.615Z,21.14
2019-06-20T16:03:14.818Z,21.34
2019-06-20T16:05:43.699Z,21.45
2019-06-20T16:08:12.354Z,21.67
2019-06-20T16:10:41.139Z,21.29
2019-06-20T16:13:09.670Z,21.21
2019-06-20T16:15:38.232Z,21.01
2019-06-20T16:18:06.882Z,20.98
2019-06-20T16:20:35.538Z,21.10
2019-06-20T16:23:04.168Z,21.03
2019-06-20T16:25:32.732Z,20.84
2019-06-20T16:28:01.393Z,21.03
2019-06-20T16:30:33.559Z,21.34
2019-06-20T16:33:00.784Z,21.72
2019-06-20T16:35:29.326Z,21.74
2019-06-20T16:37:58.051Z,21.99
2019-06-20T16:40:42.836Z,21.75
2019-06-20T16:43:11.566Z,21.59
2019-06-20T16:45:40.343Z,22.09
2019-06-20T16:48:09.088Z,21.70
2019-06-20T16:50:38.224Z,21.30
2019-06-20T16:53:07.089Z,21.71
2019-06-20T16:55:35.741Z,21.58
2019-06-20T16:58:04.556Z,21.29
2019-06-20T17:00:33.558Z,21.13
2019-06-20T17:03:02.500Z,21.70
2019-06-20T17:05:31.144Z,21.88
2019-06-20T17:07:59.920Z,21.81
2019-06-20T17:10:28.575Z,21.73
2019-06-20T17:12:57.297Z,21.28
2019-06-20T17:15:26.076Z,20.86
2019-06-20T17:17:54.799Z,20.75
2019-06-20T17:20:23.559Z,19.84
2019-06-20T17:22:52.415Z,19.87
2019-06-20T17:25:21.175Z,19.49
2019-06-20T17:27:49.952Z,19.00
2019-06-20T17:30:21.041Z,19.00
2019-06-20T17:32:49.665Z,18.57
2019-06-20T17:35:18.466Z,18.74
2019-06-20T17:37:47.375Z,18.63
2019-06-20T17:40:16.776Z,18.50
2019-06-20T17:42:45.509Z,18.18
2019-06-20T17:45:14.893Z,18.01
2019-06-20T17:47:43.724Z,17.86
2019-06-20T17:50:12.992Z,17.93
2019-06-20T17:52:41.860Z,18.15
2019-06-20T17:55:11.124Z,18.09
2019-06-20T17:57:39.857Z,18.02
2019-06-20T18:00:09.437Z,17.96
2019-06-20T18:02:38.218Z,17.74
2019-06-20T18:05:07.822Z,17.71
2019-06-20T18:07:36.600Z,17.54
2019-06-20T18:10:06.319Z,17.69
2019-06-20T18:12:34.981Z,17.49
2019-06-20T18:15:04.588Z,17.37
2019-06-20T18:17:33.361Z,17.19
2019-06-20T18:20:02.149Z,16.97
2019-06-20T18:22:30.766Z,16.76
2019-06-20T18:24:59.359Z,16.94
2019-06-20T18:27:28.021Z,16.95
2019-06-20T18:29:56.740Z,17.19
2019-06-20T18:32:25.356Z,17.09
2019-06-20T18:35:01.793Z,16.91
2019-06-20T18:37:31.288Z,16.93
2019-06-20T18:39:55.015Z,16.97
2019-06-20T18:42:23.648Z,16.96
2019-06-20T18:44:52.192Z,17.11
2019-06-20T18:47:22.003Z,16.92
2019-06-20T18:49:50.759Z,17.09
2019-06-20T18:52:19.420Z,17.05
2019-06-20T18:54:47.959Z,16.87
2019-06-20T18:57:16.694Z,16.86
2019-06-20T18:59:45.725Z,17.01
2019-06-20T19:02:14.489Z,16.98
2019-06-20T19:04:49.510Z,16.98
2019-06-20T19:07:13.506Z,16.86
2019-06-20T19:09:42.252Z,16.69
2019-06-20T19:12:10.899Z,16.72
2019-06-20T19:14:39.439Z,16.56
2019-06-20T19:17:07.980Z,16.58
2019-06-20T19:19:36.586Z,16.54
2019-06-20T19:22:05.265Z,16.21
2019-06-20T19:24:33.901Z,16.19
2019-06-20T19:27:02.649Z,16.43
2019-06-20T19:29:31.320Z,16.66
2019-06-20T19:31:59.979Z,16.61
2019-06-20T19:34:28.781Z,16.80
2019-06-20T19:36:57.459Z,16.87
2019-06-20T19:39:26.089Z,16.69
2019-06-20T19:41:54.736Z,16.83
2019-06-20T19:44:23.512Z,16.65
2019-06-20T19:46:52.257Z,16.54
2019-06-20T19:49:20.985Z,16.65
2019-06-20T19:51:49.865Z,16.48
2019-06-20T19:54:18.736Z,16.67
2019-06-20T19:56:47.478Z,16.64
2019-06-20T19:59:16.169Z,16.46
2019-06-20T20:01:44.811Z,16.62
2019-06-20T20:04:13.439Z,16.64
2019-06-20T20:06:42.217Z,16.39
2019-06-20T20:09:10.923Z,16.42
2019-06-20T20:11:39.670Z,16.44
2019-06-20T20:14:08.209Z,16.62
2019-06-20T20:16:36.776Z,16.55
2019-06-20T20:19:05.542Z,16.53
2019-06-20T20:21:34.386Z,16.45
2019-06-20T20:24:03.238Z,16.38
2019-06-20T20:26:31.796Z,16.42
2019-06-20T20:29:00.504Z,16.36
2019-06-20T20:31:29.210Z,16.29
2019-06-20T20:33:58.034Z,16.32
2019-06-20T20:36:27.053Z,16.45
2019-06-20T20:38:55.758Z,16.27
2019-06-20T20:41:24.422Z,16.34
2019-06-20T20:43:53.327Z,16.39
2019-06-20T20:46:22.136Z,16.39
2019-06-20T20:48:50.665Z,16.32
2019-06-20T20:51:19.546Z,16.26
2019-06-20T20:53:48.110Z,16.28
2019-06-20T20:56:16.658Z,16.29
2019-06-20T20:58:45.342Z,16.30
2019-06-20T21:01:24.078Z,16.28
2019-06-20T21:03:52.644Z,16.36
2019-06-20T21:06:21.198Z,16.28
2019-06-20T21:08:49.752Z,16.26
2019-06-20T21:11:18.745Z,16.30
2019-06-20T21:13:47.299Z,16.32
2019-06-20T21:16:16.150Z,16.43
2019-06-20T21:18:44.748Z,16.44
2019-06-20T21:21:13.419Z,16.54
2019-06-20T21:23:41.978Z,16.47
2019-06-20T21:26:10.768Z,16.31
2019-06-20T21:28:39.406Z,16.36
2019-06-20T21:31:08.143Z,16.18
2019-06-20T21:33:36.705Z,16.20
2019-06-20T21:36:08.868Z,16.16
2019-06-20T21:38:35.805Z,16.20
2019-06-20T21:41:04.501Z,16.16
2019-06-20T21:43:33.157Z,16.17
2019-06-20T21:46:01.696Z,16.07
2019-06-20T21:48:30.273Z,16.08
2019-06-20T21:50:58.916Z,16.05
2019-06-20T21:53:27.456Z,16.12
2019-06-20T21:55:56.118Z,16.10
2019-06-20T21:58:24.716Z,16.03
2019-06-20T22:00:57.165Z,16.05
2019-06-20T22:03:25.815Z,16.16
2019-06-20T22:05:54.343Z,16.15
2019-06-20T22:08:23.023Z,16.13
2019-06-20T22:10:51.695Z,16.22
2019-06-20T22:13:20.238Z,16.23
2019-06-20T22:15:48.774Z,16.32
2019-06-20T22:18:17.459Z,16.34
2019-06-20T22:20:46.182Z,16.27
2019-06-20T22:23:14.837Z,16.25
2019-06-20T22:25:43.598Z,16.28
2019-06-20T22:28:12.335Z,16.15
2019-06-20T22:30:44.690Z,16.16
2019-06-20T22:33:13.454Z,16.04
2019-06-20T22:35:45.792Z,15.99
2019-06-20T22:38:13.533Z,15.95
2019-06-20T22:40:42.459Z,15.93
2019-06-20T22:43:11.201Z,15.90
2019-06-20T22:45:40.272Z,15.92
2019-06-20T22:48:09.021Z,15.95
2019-06-20T22:50:37.759Z,15.98
2019-06-20T22:53:06.418Z,15.92
2019-06-20T22:55:35.157Z,15.97
2019-06-20T22:58:04.221Z,16.05
2019-06-20T23:00:32.993Z,16.09
2019-06-20T23:03:01.743Z,16.05
2019-06-20T23:05:30.470Z,16.11
2019-06-20T23:07:59.251Z,16.04
2019-06-20T23:10:27.929Z,16.10
2019-06-20T23:12:56.459Z,16.05
2019-06-20T23:15:25.338Z,16.02
2019-06-20T23:17:53.876Z,16.04
2019-06-20T23:20:23.229Z,15.99
2019-06-20T23:22:51.883Z,16.03
2019-06-20T23:25:20.812Z,16.10
2019-06-20T23:27:49.537Z,16.07
2019-06-20T23:30:18.895Z,16.00
2019-06-20T23:32:47.440Z,15.97
2019-06-20T23:35:16.194Z,15.92
2019-06-20T23:37:44.849Z,15.83
2019-06-20T23:40:13.808Z,15.79
2019-06-20T23:42:42.539Z,15.79
2019-06-20T23:45:11.729Z,15.75
2019-06-20T23:47:40.281Z,15.63
2019-06-20T23:50:17.289Z,15.40
2019-06-20T23:52:49.889Z,15.36
2019-06-20T23:55:18.639Z,15.27
2019-06-20T23:57:47.386Z,15.22
